37VA weather

St. Mary's Hospital Heliport
Richmond, Virginia, United States

Public forecast

Using degrees Fahrenheit for public forecast. Weather courtesy of forecast.io.

Closest aviation weather report (METAR) to St. Mary's Hospital Heliport

Closest report is Hanover County Municipal Airport, 8.9 nm (16.5 km) NNE. Retrieved 2020/03/29 17:54 UTC (1 hour ago):

KOFP 291754Z AUTO 18008KT 8SM CLR 24/15 A2985 RMK AO2 SLP107 T02390150 10239 20117 56048

Closest aviation forecast (TAF) to St. Mary's Hospital Heliport

Closest forecast is Richmond International Airport, 9.6 nm (17.7 km) ESE. Retrieved 2020/03/29 18:45 UTC (9 minutes ago):

TAF KRIC 291743Z 2918/3018 16009G15KT P6SM SCT030 OVC250 FM292300 25010KT P6SM SCT250 FM300200 27007KT P6SM SKC